Time;durP1;ratioP1;P1;durP2;ratioP2;P2;SDS_P1;SDS_P2;PMS_P1;PMS_P2;Temp;Humidity;BMP_temperature;BMP_pressure;BME280_temperature;BME280_humidity;BME280_pressure;Samples;Min_cycle;Max_cycle;Signal;HPM_P1;HPM_P2
2023/07/30 00:02:24;;;;;;;3.00;2.60;;;;;;;18.92;100.00;98545.73;109333;1253;74693;-68
2023/07/30 00:04:52;;;;;;;3.10;2.30;;;;;;;18.96;100.00;98535.29;109455;1252;66910;-69
2023/07/30 00:07:19;;;;;;;3.80;2.20;;;;;;;19.00;100.00;98531.78;109465;1252;72490;-69
2023/07/30 00:09:47;;;;;;;4.10;2.70;;;;;;;19.03;100.00;98527.52;109406;1253;62185;-68
2023/07/30 00:12:14;;;;;;;3.60;2.70;;;;;;;19.05;100.00;98527.92;109515;1254;60056;-68
2023/07/30 00:14:42;;;;;;;2.90;2.70;;;;;;;19.05;100.00;98526.57;109427;1253;74639;-68
2023/07/30 00:17:09;;;;;;;2.60;2.40;;;;;;;19.04;100.00;98524.88;109515;1253;67622;-69
2023/07/30 00:19:36;;;;;;;3.60;2.80;;;;;;;19.00;100.00;98523.20;109445;1253;72657;-69
2023/07/30 00:22:04;;;;;;;3.20;2.70;;;;;;;18.99;100.00;98524.55;109416;1253;60843;-68
2023/07/30 00:24:32;;;;;;;2.80;2.60;;;;;;;19.02;100.00;98523.67;109369;1254;60002;-68
2023/07/30 00:26:59;;;;;;;3.60;3.30;;;;;;;19.07;100.00;98527.57;109368;1253;73892;-69
2023/07/30 00:29:26;;;;;;;2.80;2.40;;;;;;;19.05;100.00;98526.95;109467;1253;66318;-69
2023/07/30 00:31:54;;;;;;;3.00;2.80;;;;;;;19.08;100.00;98522.08;109398;1253;72915;-68
2023/07/30 00:34:21;;;;;;;3.20;2.90;;;;;;;19.01;100.00;98517.72;109463;1254;61822;-69
2023/07/30 00:36:49;;;;;;;4.60;2.50;;;;;;;19.04;100.00;98515.34;109389;1254;59992;-68
2023/07/30 00:39:16;;;;;;;3.40;2.70;;;;;;;19.06;100.00;98517.58;109243;1253;73313;-68
2023/07/30 00:41:45;;;;;;;4.40;3.10;;;;;;;19.09;100.00;98521.77;109412;1254;67746;-68
2023/07/30 00:44:13;;;;;;;3.30;2.70;;;;;;;19.09;100.00;98517.23;109412;1254;71394;-69
2023/07/30 00:46:41;;;;;;;3.80;2.90;;;;;;;19.13;100.00;98514.44;109417;1252;60398;-68
2023/07/30 00:49:09;;;;;;;6.00;3.10;;;;;;;19.16;100.00;98511.30;109410;1254;60130;-69
2023/07/30 00:51:36;;;;;;;3.00;2.80;;;;;;;19.21;100.00;98505.61;109485;1253;74788;-69
2023/07/30 00:54:04;;;;;;;3.00;2.70;;;;;;;19.26;100.00;98505.34;109302;1253;67930;-69
2023/07/30 00:56:31;;;;;;;3.50;2.60;;;;;;;19.28;100.00;98503.50;109444;1253;71644;-69
2023/07/30 00:58:58;;;;;;;4.10;2.90;;;;;;;19.30;100.00;98498.13;109412;1254;60366;-69
2023/07/30 01:01:26;;;;;;;3.00;2.70;;;;;;;19.34;100.00;98498.08;109476;1254;59156;-69
2023/07/30 01:03:53;;;;;;;4.70;2.40;;;;;;;19.36;100.00;98494.23;109340;1253;73232;-69
2023/07/30 01:06:21;;;;;;;2.90;2.70;;;;;;;19.35;100.00;98493.51;109445;1252;66312;-69
2023/07/30 01:08:48;;;;;;;3.30;2.80;;;;;;;19.35;100.00;98493.45;109475;1253;72684;-69
2023/07/30 01:11:16;;;;;;;2.90;2.70;;;;;;;19.35;100.00;98494.37;109456;1254;60842;-69
2023/07/30 01:13:43;;;;;;;2.70;2.50;;;;;;;19.31;100.00;98490.11;109292;1253;59204;-68
2023/07/30 01:16:14;;;;;;;3.40;2.90;;;;;;;19.30;100.00;98489.34;109320;1253;74652;-68
2023/07/30 01:18:41;;;;;;;4.00;2.90;;;;;;;19.31;100.00;98485.46;109470;1253;66315;-68
2023/07/30 01:21:09;;;;;;;2.80;2.60;;;;;;;19.31;100.00;98482.18;109257;1253;71682;-68
2023/07/30 01:23:36;;;;;;;4.00;2.90;;;;;;;19.31;100.00;98475.92;109384;1253;60378;-69
2023/07/30 01:26:08;;;;;;;4.70;2.80;;;;;;;19.28;100.00;98474.54;109384;1252;60098;-69
2023/07/30 01:28:38;;;;;;;3.30;3.00;;;;;;;19.32;100.00;98469.84;109163;1253;74624;-69
2023/07/30 01:31:05;;;;;;;6.30;3.10;;;;;;;19.34;100.00;98472.71;109329;1253;67811;-68
2023/07/30 01:33:33;;;;;;;3.00;2.70;;;;;;;19.38;100.00;98478.73;109281;1253;71484;-69
2023/07/30 01:36:00;;;;;;;3.40;3.10;;;;;;;19.40;100.00;98481.35;109197;1253;62387;-69
2023/07/30 01:38:27;;;;;;;3.40;3.10;;;;;;;19.40;100.00;98480.27;109402;1253;58901;-69
2023/07/30 01:40:55;;;;;;;5.60;2.60;;;;;;;19.42;100.00;98475.44;109317;1258;73418;-69
2023/07/30 01:43:22;;;;;;;3.80;3.40;;;;;;;19.43;100.00;98465.98;109326;1254;66416;-69
2023/07/30 01:45:50;;;;;;;3.10;2.80;;;;;;;19.46;100.00;98468.27;109344;1253;71596;-69
2023/07/30 01:48:17;;;;;;;3.10;2.80;;;;;;;19.44;100.00;98465.10;109427;1253;60542;-69
2023/07/30 01:50:47;;;;;;;3.60;2.90;;;;;;;19.39;100.00;98455.02;109468;1253;59234;-69
2023/07/30 01:53:14;;;;;;;4.70;3.20;;;;;;;19.34;100.00;98452.01;109463;1253;74677;-69
2023/07/30 01:55:46;;;;;;;5.10;3.30;;;;;;;19.27;100.00;98450.14;109488;1253;67702;-69
2023/07/30 01:58:13;;;;;;;4.00;3.20;;;;;;;19.23;100.00;98455.06;109259;1254;72352;-69
2023/07/30 02:00:41;;;;;;;3.90;3.10;;;;;;;19.19;100.00;98456.90;109321;1254;61694;-69
2023/07/30 02:03:08;;;;;;;3.40;3.10;;;;;;;19.19;100.00;98455.02;109373;1253;58944;-69
2023/07/30 02:05:35;;;;;;;3.20;2.70;;;;;;;19.25;100.00;98453.89;109315;1253;73453;-69
2023/07/30 02:08:03;;;;;;;4.40;2.80;;;;;;;19.30;100.00;98451.05;109517;1253;67840;-69
2023/07/30 02:10:30;;;;;;;2.80;2.60;;;;;;;19.34;100.00;98450.34;109422;1254;71248;-69
2023/07/30 02:12:58;;;;;;;3.40;2.80;;;;;;;19.38;100.00;98447.02;109401;1254;60401;-69
2023/07/30 02:15:25;;;;;;;2.90;2.70;;;;;;;19.44;100.00;98447.75;109444;1252;60035;-69
2023/07/30 02:17:53;;;;;;;3.20;2.90;;;;;;;19.49;100.00;98447.91;109520;1253;74617;-69
2023/07/30 02:20:21;;;;;;;3.10;2.80;;;;;;;19.54;100.00;98452.95;109432;1254;66287;-70
2023/07/30 02:22:48;;;;;;;3.50;3.20;;;;;;;19.61;100.00;98458.67;109464;1254;72684;-70
2023/07/30 02:25:16;;;;;;;3.00;2.70;;;;;;;19.68;100.00;98462.15;109382;1254;60918;-70
2023/07/30 02:27:43;;;;;;;4.60;3.00;;;;;;;19.74;100.00;98462.55;109270;1254;59241;-70
2023/07/30 02:30:11;;;;;;;3.50;3.20;;;;;;;19.75;100.00;98462.45;109430;1254;74601;-70
2023/07/30 02:32:38;;;;;;;3.60;2.80;;;;;;;19.82;100.00;98459.72;109416;1253;67898;-70
2023/07/30 02:35:06;;;;;;;5.00;3.00;;;;;;;19.86;100.00;98456.69;109475;1254;71459;-70
2023/07/30 02:37:33;;;;;;;3.40;3.10;;;;;;;19.89;100.00;98457.85;109263;1253;61780;-70
2023/07/30 02:40:04;;;;;;;3.50;3.00;;;;;;;19.93;100.00;98459.89;109260;1253;60481;-70
2023/07/30 02:42:32;;;;;;;3.70;3.00;;;;;;;19.96;100.00;98463.65;109399;1254;74710;-70
2023/07/30 02:44:59;;;;;;;3.20;2.90;;;;;;;19.96;100.00;98456.52;109468;1253;66807;-70
2023/07/30 02:47:26;;;;;;;3.80;3.10;;;;;;;19.91;100.00;98459.17;109497;1252;71215;-70
2023/07/30 02:49:54;;;;;;;3.10;2.60;;;;;;;19.91;100.00;98451.83;109366;1254;61696;-70
2023/07/30 02:52:21;;;;;;;3.10;2.90;;;;;;;19.87;100.00;98455.98;109267;1253;58943;-70
2023/07/30 02:54:49;;;;;;;5.50;3.70;;;;;;;19.83;100.00;98453.57;109445;1254;74675;-69
2023/07/30 02:57:16;;;;;;;4.00;3.10;;;;;;;19.82;100.00;98453.08;109405;1254;67950;-70
2023/07/30 02:59:43;;;;;;;3.30;3.00;;;;;;;19.78;100.00;98455.41;109431;1254;71724;-70
2023/07/30 03:02:11;;;;;;;4.40;2.80;;;;;;;19.77;100.00;98460.05;109316;1253;61672;-70
2023/07/30 03:04:38;;;;;;;3.40;3.10;;;;;;;19.79;100.00;98462.05;109400;1253;60313;-70
2023/07/30 03:07:06;;;;;;;7.10;3.40;;;;;;;19.78;100.00;98457.73;109359;1253;74655;-70
2023/07/30 03:09:34;;;;;;;4.80;3.60;;;;;;;19.79;100.00;98461.64;109300;1254;68366;-70
2023/07/30 03:12:01;;;;;;;5.20;3.60;;;;;;;19.81;100.00;98452.91;109327;1253;72743;-69
2023/07/30 03:14:30;;;;;;;9.10;4.70;;;;;;;19.84;100.00;98450.45;109342;1254;61724;-70
2023/07/30 03:16:58;;;;;;;5.50;4.00;;;;;;;19.78;100.00;98452.23;109356;1254;58858;-69
2023/07/30 03:19:26;;;;;;;6.00;3.70;;;;;;;19.67;100.00;98452.81;109398;1254;73347;-70
2023/07/30 03:21:53;;;;;;;8.20;3.80;;;;;;;19.57;100.00;98458.21;109426;1253;67653;-71
2023/07/30 03:24:20;;;;;;;3.60;3.30;;;;;;;19.51;100.00;98456.46;109409;1254;72306;-70
2023/07/30 03:26:48;;;;;;;4.30;3.90;;;;;;;19.48;100.00;98457.08;109280;1254;60519;-69
2023/07/30 03:29:15;;;;;;;4.00;3.70;;;;;;;19.47;100.00;98453.71;109380;1254;59103;-69
2023/07/30 03:31:43;;;;;;;5.90;3.50;;;;;;;19.48;100.00;98451.30;109373;1254;74655;-69
2023/07/30 03:34:10;;;;;;;3.90;3.50;;;;;;;19.47;100.00;98450.48;109415;1253;66274;-69
2023/07/30 03:36:38;;;;;;;5.70;3.90;;;;;;;19.43;100.00;98453.95;109350;1254;71471;-69
2023/07/30 03:39:05;;;;;;;4.30;3.90;;;;;;;19.44;100.00;98454.91;109409;1254;61732;-69
2023/07/30 03:41:32;;;;;;;6.10;4.20;;;;;;;19.46;100.00;98452.29;109448;1254;60029;-69
2023/07/30 03:44:00;;;;;;;4.90;3.60;;;;;;;19.49;100.00;98449.96;109372;1254;73346;-69
2023/07/30 03:46:27;;;;;;;4.50;4.10;;;;;;;19.43;100.00;98450.70;109464;1254;66622;-69
2023/07/30 03:48:55;;;;;;;6.00;3.60;;;;;;;19.43;100.00;98457.05;109368;1255;72736;-69
2023/07/30 03:51:22;;;;;;;4.80;3.70;;;;;;;19.47;100.00;98459.80;109343;1254;61751;-69
2023/07/30 03:53:50;;;;;;;5.90;3.80;;;;;;;19.53;100.00;98459.55;109393;1254;60015;-68
2023/07/30 03:56:17;;;;;;;4.60;4.10;;;;;;;19.52;100.00;98460.95;109355;1254;75106;-69
2023/07/30 03:58:44;;;;;;;4.60;3.80;;;;;;;19.56;100.00;98461.10;109387;1253;66684;-68
2023/07/30 04:01:12;;;;;;;4.00;3.40;;;;;;;19.57;100.00;98464.29;109351;1253;72704;-69
2023/07/30 04:03:39;;;;;;;7.20;4.50;;;;;;;19.58;100.00;98460.80;109356;1252;61753;-69
2023/07/30 04:06:07;;;;;;;9.40;4.20;;;;;;;19.58;100.00;98458.96;109418;1254;58961;-68
2023/07/30 04:08:34;;;;;;;3.90;3.50;;;;;;;19.58;100.00;98453.36;109359;1254;74621;-68
2023/07/30 04:11:01;;;;;;;6.20;3.80;;;;;;;19.60;100.00;98458.30;109364;1253;66786;-68
2023/07/30 04:13:29;;;;;;;5.10;3.80;;;;;;;19.62;100.00;98462.73;109398;1254;71390;-68
2023/07/30 04:15:56;;;;;;;6.40;4.20;;;;;;;19.66;100.00;98461.11;109370;1254;60449;-68
2023/07/30 04:18:24;;;;;;;4.30;3.70;;;;;;;19.70;100.00;98458.35;109507;1252;58904;-69
2023/07/30 04:20:54;;;;;;;10.00;4.10;;;;;;;19.73;100.00;98451.80;109501;1253;74044;-68
2023/07/30 04:23:22;;;;;;;5.50;3.70;;;;;;;19.80;100.00;98460.66;109455;1254;66378;-68
2023/07/30 04:25:50;;;;;;;4.30;3.90;;;;;;;19.85;100.00;98461.33;109403;1254;71391;-68
2023/07/30 04:28:17;;;;;;;6.40;3.40;;;;;;;19.95;100.00;98460.98;109344;1253;60374;-69
2023/07/30 04:30:46;;;;;;;5.60;4.00;;;;;;;20.02;100.00;98459.18;109448;1253;59099;-68
2023/07/30 04:33:14;;;;;;;6.40;4.30;;;;;;;20.06;100.00;98463.43;109328;1253;73336;-69
2023/07/30 04:35:42;;;;;;;4.20;3.80;;;;;;;20.19;100.00;98462.41;109312;1254;67593;-68
2023/07/30 04:38:10;;;;;;;5.40;4.20;;;;;;;20.32;100.00;98462.77;109282;1254;72667;-68
2023/07/30 04:40:38;;;;;;;4.60;3.80;;;;;;;20.61;100.00;98461.88;109400;1254;61679;-68
2023/07/30 04:43:06;;;;;;;6.10;4.40;;;;;;;21.01;100.00;98465.28;109489;1253;59079;-68
2023/07/30 04:45:33;;;;;;;4.10;3.60;;;;;;;21.30;100.00;98459.13;109374;1254;74643;-68
2023/07/30 04:48:01;;;;;;;4.60;3.90;;;;;;;21.54;100.00;98454.58;109342;1253;66232;-68
2023/07/30 04:50:28;;;;;;;4.90;3.70;;;;;;;21.76;100.00;98446.80;109292;1253;73139;-68
2023/07/30 04:52:56;;;;;;;5.00;3.70;;;;;;;21.95;100.00;98437.39;109327;1254;61706;-68
2023/07/30 04:55:24;;;;;;;4.10;3.70;;;;;;;22.09;100.00;98433.62;109402;1253;60039;-69
2023/07/30 04:57:51;;;;;;;4.20;3.80;;;;;;;22.15;100.00;98434.23;109355;1254;73432;-69
2023/07/30 05:00:18;;;;;;;4.00;3.70;;;;;;;22.17;100.00;98440.61;109442;1253;68004;-69
2023/07/30 05:02:46;;;;;;;4.50;4.00;;;;;;;22.13;100.00;98444.95;109400;1254;72652;-69
2023/07/30 05:05:13;;;;;;;7.50;4.10;;;;;;;22.09;100.00;98444.40;109387;1254;61663;-69
2023/07/30 05:07:41;;;;;;;4.20;3.80;;;;;;;22.07;100.00;98440.45;109395;1254;58863;-69
2023/07/30 05:10:10;;;;;;;3.90;3.50;;;;;;;22.11;100.00;98439.20;109381;1253;74883;-69
2023/07/30 05:12:38;;;;;;;5.20;3.80;;;;;;;22.22;100.00;98446.27;109358;1254;65813;-69
2023/07/30 05:15:06;;;;;;;12.50;5.00;;;;;;;22.42;100.00;98439.21;109351;1252;72712;-68
2023/07/30 05:17:33;;;;;;;8.40;4.40;;;;;;;22.78;100.00;98432.17;109363;1254;60508;-68
2023/07/30 05:20:01;;;;;;;4.60;4.10;;;;;;;23.23;100.00;98430.58;109425;1253;58980;-69
2023/07/30 05:22:28;;;;;;;5.10;3.70;;;;;;;23.75;100.00;98425.70;109402;1254;74663;-69
2023/07/30 05:24:56;;;;;;;5.50;3.80;;;;;;;24.24;100.00;98423.20;109430;1254;67611;-68
2023/07/30 05:27:24;;;;;;;4.90;4.20;;;;;;;24.72;100.00;98418.73;109369;1253;72743;-68
2023/07/30 05:29:51;;;;;;;5.00;3.60;;;;;;;25.15;100.00;98415.89;109414;1254;60033;-69
2023/07/30 05:32:18;;;;;;;5.40;4.10;;;;;;;25.60;100.00;98413.40;109415;1253;59998;-69
2023/07/30 05:34:46;;;;;;;3.60;3.30;;;;;;;26.07;100.00;98404.16;109392;1254;74632;-70
2023/07/30 05:37:13;;;;;;;3.70;3.40;;;;;;;26.49;100.00;98401.97;109382;1254;66471;-69
2023/07/30 05:39:40;;;;;;;3.80;3.40;;;;;;;26.88;100.00;98408.83;109419;1254;72728;-69
2023/07/30 05:42:08;;;;;;;3.50;3.20;;;;;;;27.14;100.00;98411.27;109395;1254;60061;-68
2023/07/30 05:44:35;;;;;;;6.00;3.30;;;;;;;27.24;100.00;98409.20;109376;1254;60064;-68
2023/07/30 05:47:03;;;;;;;3.10;2.90;;;;;;;27.17;100.00;98412.21;109409;1253;74584;-68
2023/07/30 05:49:30;;;;;;;3.70;3.20;;;;;;;27.07;100.00;98416.48;109370;1254;66292;-68
2023/07/30 05:51:57;;;;;;;3.00;2.80;;;;;;;27.00;100.00;98414.92;109409;1253;72619;-68
2023/07/30 05:54:25;;;;;;;4.20;3.00;;;;;;;27.00;100.00;98414.92;109378;1254;58955;-68
2023/07/30 05:56:53;;;;;;;3.90;3.10;;;;;;;27.18;100.00;98407.81;109470;1252;58882;-71
2023/07/30 05:59:20;;;;;;;3.30;2.80;;;;;;;27.46;100.00;98400.31;109456;1254;73917;-69
2023/07/30 06:01:49;;;;;;;3.20;2.30;;;;;;;27.73;100.00;98391.10;109417;1253;66322;-69
2023/07/30 06:04:17;;;;;;;2.80;2.50;;;;;;;27.96;100.00;98396.38;109496;1253;72442;-69
2023/07/30 06:06:44;;;;;;;2.60;2.40;;;;;;;28.20;100.00;98397.55;109423;1254;58912;-68
2023/07/30 06:09:12;;;;;;;2.90;2.20;;;;;;;28.46;100.00;98387.14;109406;1253;60032;-67
2023/07/30 06:11:39;;;;;;;2.60;2.40;;;;;;;28.71;100.00;98381.69;109401;1252;75130;-69
2023/07/30 06:14:07;;;;;;;3.60;2.80;;;;;;;28.91;100.00;98380.97;109434;1253;66779;-68
2023/07/30 06:16:34;;;;;;;3.90;2.60;;;;;;;29.12;100.00;98384.53;109457;1253;71379;-69
2023/07/30 06:19:01;;;;;;;2.60;2.40;;;;;;;29.36;100.00;98388.83;109355;1254;60142;-69
2023/07/30 06:21:29;;;;;;;2.60;2.40;;;;;;;29.63;100.00;98394.58;109396;1253;58931;-68
2023/07/30 06:23:56;;;;;;;3.00;2.80;;;;;;;29.90;100.00;98402.38;109353;1253;73636;-68
2023/07/30 06:26:24;;;;;;;3.00;2.60;;;;;;;30.08;100.00;98401.55;109437;1252;66986;-70
2023/07/30 06:28:51;;;;;;;2.90;2.40;;;;;;;30.11;100.00;98404.20;109420;1253;70529;-70
2023/07/30 06:31:18;;;;;;;3.10;2.50;;;;;;;30.23;100.00;98403.79;109399;1253;59003;-70
2023/07/30 06:33:46;;;;;;;4.00;2.70;;;;;;;30.37;100.00;98396.06;109309;1253;62033;-69
2023/07/30 06:36:13;;;;;;;2.70;2.40;;;;;;;30.56;99.91;98397.07;109361;1253;74648;-69
2023/07/30 06:38:41;;;;;;;2.70;2.40;;;;;;;30.72;98.94;98392.17;109465;1252;66400;-69
2023/07/30 06:41:08;;;;;;;5.70;2.30;;;;;;;30.80;97.95;98391.13;109358;1253;72607;-69
2023/07/30 06:43:35;;;;;;;4.70;2.40;;;;;;;30.84;97.25;98388.46;109385;1253;60091;-69
2023/07/30 06:46:03;;;;;;;2.50;2.30;;;;;;;30.93;97.09;98390.19;109389;1253;60016;-69
2023/07/30 06:48:31;;;;;;;3.20;2.40;;;;;;;30.99;96.20;98390.70;109370;1253;74751;-69
2023/07/30 06:50:58;;;;;;;2.30;2.10;;;;;;;31.10;96.09;98387.30;109342;1253;68089;-69
2023/07/30 06:53:26;;;;;;;3.20;2.10;;;;;;;31.29;95.59;98387.36;109418;1253;72666;-68
2023/07/30 06:55:53;;;;;;;3.20;2.10;;;;;;;31.44;93.72;98386.20;109221;1254;178446;-68
2023/07/30 06:58:21;;;;;;;5.20;2.10;;;;;;;31.52;93.12;98387.06;109406;1252;62336;-68
2023/07/30 07:00:48;;;;;;;3.40;3.10;;;;;;;31.58;91.63;98384.41;109413;1253;74655;-68
2023/07/30 07:03:15;;;;;;;4.20;2.60;;;;;;;31.57;91.39;98379.71;109435;1253;67533;-68
2023/07/30 07:05:43;;;;;;;2.90;2.60;;;;;;;31.64;90.49;98374.73;109364;1253;71881;-68
2023/07/30 07:08:11;;;;;;;3.10;2.50;;;;;;;31.67;89.84;98372.90;109408;1254;60161;-68
2023/07/30 07:10:39;;;;;;;2.60;2.40;;;;;;;31.76;89.68;98370.27;109420;1253;60000;-69
2023/07/30 07:13:06;;;;;;;4.00;2.10;;;;;;;31.89;88.34;98370.60;109366;1253;73406;-68
2023/07/30 07:15:33;;;;;;;2.50;2.30;;;;;;;31.87;86.59;98369.87;109400;1253;68384;-68
2023/07/30 07:18:01;;;;;;;2.70;2.50;;;;;;;31.88;87.34;98372.42;109379;1253;72711;-68
2023/07/30 07:20:28;;;;;;;3.00;2.20;;;;;;;32.00;86.83;98381.40;109372;1253;58861;-70
2023/07/30 07:22:56;;;;;;;2.80;2.30;;;;;;;32.01;85.46;98376.00;109505;1253;58879;-68
2023/07/30 07:25:24;;;;;;;6.20;2.60;;;;;;;32.05;85.58;98372.88;109453;1254;73408;-66
2023/07/30 07:27:51;;;;;;;2.10;2.00;;;;;;;32.13;85.82;98375.14;109431;1253;67608;-64
2023/07/30 07:30:19;;;;;;;2.30;2.10;;;;;;;32.11;83.99;98368.68;109409;1253;72464;-68
2023/07/30 07:32:50;;;;;;;2.30;2.10;;;;;;;32.20;84.23;98370.98;109399;1253;62018;-68
2023/07/30 07:35:21;;;;;;;2.00;1.80;;;;;;;32.39;83.01;98375.30;109523;1252;60106;-68
2023/07/30 07:37:48;;;;;;;3.20;2.40;;;;;;;32.46;82.12;98376.30;109492;1252;74681;-68
2023/07/30 07:40:16;;;;;;;2.10;2.00;;;;;;;32.58;81.42;98378.27;109377;1253;67584;-68
2023/07/30 07:42:43;;;;;;;2.10;1.90;;;;;;;32.54;79.21;98371.53;109362;1253;71397;-67
2023/07/30 07:45:11;;;;;;;1.90;1.80;;;;;;;32.46;78.86;98370.48;109347;1253;60025;-68
2023/07/30 07:47:38;;;;;;;2.00;1.90;;;;;;;32.47;79.26;98367.88;109402;1253;60241;-68
2023/07/30 07:50:06;;;;;;;2.10;1.90;;;;;;;32.56;78.05;98366.42;109360;1252;75092;-67
2023/07/30 07:52:33;;;;;;;2.00;1.90;;;;;;;32.65;76.11;98363.80;109408;1252;67926;-69
2023/07/30 07:55:01;;;;;;;2.60;2.00;;;;;;;32.79;75.49;98353.53;109345;1253;72656;-72
2023/07/30 07:57:29;;;;;;;4.30;2.10;;;;;;;33.08;74.08;98356.69;109296;1253;58962;-69
2023/07/30 07:59:57;;;;;;;1.90;1.80;;;;;;;33.32;72.50;98361.67;109376;1254;58964;-68
2023/07/30 08:02:24;;;;;;;1.90;1.80;;;;;;;33.52;70.58;98367.40;109388;1254;73358;-66
2023/07/30 08:04:52;;;;;;;2.40;2.20;;;;;;;33.49;67.73;98360.29;109503;1253;68091;-67
2023/07/30 08:07:20;;;;;;;2.20;1.70;;;;;;;33.25;68.03;98354.83;109398;1253;72691;-69
2023/07/30 08:09:47;;;;;;;3.10;1.90;;;;;;;33.17;68.78;98351.02;109355;1254;58962;-72
2023/07/30 08:12:15;;;;;;;3.10;1.90;;;;;;;33.27;68.71;98354.55;109366;1253;58907;-72
2023/07/30 08:14:42;;;;;;;2.70;2.00;;;;;;;33.27;66.98;98351.41;109382;1253;74659;-68
2023/07/30 08:17:09;;;;;;;1.70;1.60;;;;;;;32.89;65.82;98353.86;109331;1253;66787;-69
2023/07/30 08:19:37;;;;;;;1.70;1.60;;;;;;;32.45;65.58;98357.91;109414;1253;72683;-71
2023/07/30 08:22:04;;;;;;;1.60;1.50;;;;;;;32.13;66.57;98363.59;109390;1253;60048;-68
2023/07/30 08:24:32;;;;;;;1.60;1.50;;;;;;;31.86;67.07;98362.99;109435;1253;58861;-64
2023/07/30 08:26:59;;;;;;;1.70;1.20;;;;;;;31.74;68.63;98367.77;109360;1252;74669;-68
2023/07/30 08:29:26;;;;;;;2.00;1.30;;;;;;;31.75;69.73;98365.59;109419;1253;66570;-63
2023/07/30 08:31:54;;;;;;;1.50;1.30;;;;;;;31.84;70.04;98364.65;109383;1253;72702;-67
2023/07/30 08:34:22;;;;;;;2.70;1.70;;;;;;;31.93;71.51;98364.92;109435;1252;60052;-67
2023/07/30 08:36:50;;;;;;;1.70;1.20;;;;;;;31.94;70.24;98370.06;109393;1253;59195;-68
2023/07/30 08:39:17;;;;;;;2.30;1.50;;;;;;;31.90;67.40;98368.13;109423;1253;74953;-67
2023/07/30 08:41:45;;;;;;;1.50;1.40;;;;;;;31.99;67.58;98366.97;109353;1253;67772;-68
2023/07/30 08:44:13;;;;;;;1.60;1.40;;;;;;;32.20;68.38;98368.02;109470;1252;71440;-68
2023/07/30 08:46:40;;;;;;;1.90;1.70;;;;;;;32.35;65.97;98368.15;109370;1253;59534;-68
2023/07/30 08:49:08;;;;;;;2.90;1.60;;;;;;;32.01;65.08;98372.70;109384;1253;60171;-69
2023/07/30 08:51:36;;;;;;;1.90;1.40;;;;;;;31.57;67.16;98366.91;109347;1254;73418;-67
2023/07/30 08:54:04;;;;;;;1.50;1.30;;;;;;;31.35;68.02;98368.32;109451;1253;67928;-65
2023/07/30 08:56:32;;;;;;;1.40;1.20;;;;;;;31.52;67.23;98364.16;109435;1252;71325;-66
2023/07/30 08:58:59;;;;;;;1.30;1.20;;;;;;;31.83;66.12;98365.17;109355;1253;58925;-67
2023/07/30 09:01:31;;;;;;;2.10;1.40;;;;;;;32.33;66.07;98372.17;109302;1253;60105;-69
2023/07/30 09:04:02;;;;;;;1.50;1.30;;;;;;;32.83;63.90;98377.42;109297;1253;72667;-68
2023/07/30 09:06:30;;;;;;;1.50;1.40;;;;;;;32.97;61.09;98377.51;109385;1253;67628;-66
2023/07/30 09:08:58;;;;;;;1.50;1.20;;;;;;;32.77;61.38;98373.89;109438;1256;72670;-66
2023/07/30 09:11:26;;;;;;;1.60;1.50;;;;;;;32.45;62.17;98371.34;109440;1252;60131;-66
2023/07/30 09:13:57;;;;;;;1.90;1.70;;;;;;;32.48;63.71;98379.32;109372;1253;60115;-67
2023/07/30 09:16:25;;;;;;;2.10;1.40;;;;;;;32.74;64.02;98377.27;109361;1253;73747;-68
2023/07/30 09:18:54;;;;;;;1.80;1.50;;;;;;;33.15;62.87;98379.83;109423;1252;67567;-69
2023/07/30 09:21:31;;;;;;;1.60;1.50;;;;;;;33.47;62.46;98373.86;109311;1253;71427;-66
2023/07/30 09:24:05;;;;;;;1.40;1.30;;;;;;;33.84;58.77;98368.57;109379;1257;58920;-67
2023/07/30 09:26:43;;;;;;;1.50;1.40;;;;;;;34.19;58.05;98368.73;109335;1254;59234;-67
2023/07/30 09:29:10;;;;;;;2.30;1.30;;;;;;;34.30;55.97;98366.95;109377;1253;73705;-67
2023/07/30 09:31:55;;;;;;;3.20;1.30;;;;;;;34.10;56.96;98360.23;109402;1252;67605;-75
2023/07/30 09:34:24;;;;;;;1.60;1.30;;;;;;;33.96;57.29;98362.77;109390;1252;71459;-67
2023/07/30 09:36:52;;;;;;;2.20;1.40;;;;;;;34.02;57.33;98363.98;109359;1252;61803;-72
2023/07/30 09:39:22;;;;;;;1.80;1.30;;;;;;;34.25;56.57;98367.02;109383;1253;58985;-68
2023/07/30 09:41:58;;;;;;;1.40;1.30;;;;;;;34.22;55.34;98365.60;109481;1252;73968;-72
2023/07/30 09:44:26;;;;;;;2.10;1.30;;;;;;;33.74;56.38;98364.81;109438;1253;67914;-71
2023/07/30 09:46:54;;;;;;;1.80;1.20;;;;;;;33.39;57.90;98367.77;109320;1254;73249;-72
2023/07/30 09:49:21;;;;;;;2.90;1.60;;;;;;;33.07;58.62;98365.64;109317;1253;60325;-67
2023/07/30 09:51:52;;;;;;;2.90;1.30;;;;;;;33.08;59.89;98365.98;109404;1253;62436;-69
2023/07/30 09:54:20;;;;;;;1.40;1.20;;;;;;;33.31;57.46;98366.11;109497;1252;74642;-68
2023/07/30 09:56:48;;;;;;;1.60;1.10;;;;;;;33.61;58.00;98368.73;109394;1253;67507;-67
2023/07/30 09:59:15;;;;;;;1.10;1.00;;;;;;;33.80;57.87;98370.34;109384;1253;71480;-67
2023/07/30 10:01:49;;;;;;;1.00;0.90;;;;;;;33.89;57.01;98369.50;109374;1254;60042;-69
2023/07/30 10:04:19;;;;;;;1.10;1.00;;;;;;;34.19;56.63;98368.11;109304;1253;59232;-67
2023/07/30 10:07:04;;;;;;;3.60;0.90;;;;;;;34.66;55.36;98362.39;109385;1252;74755;-69
2023/07/30 10:09:38;;;;;;;2.20;1.00;;;;;;;34.99;52.19;98351.13;109292;1254;66464;-69
2023/07/30 10:12:06;;;;;;;0.90;0.80;;;;;;;35.26;51.39;98353.77;109404;1253;72719;-70
2023/07/30 10:14:33;;;;;;;3.00;0.90;;;;;;;35.46;48.90;98358.10;109296;1253;60058;-67
2023/07/30 10:17:01;;;;;;;1.00;0.90;;;;;;;35.50;46.82;98357.73;109337;1253;58871;-65
2023/07/30 10:19:29;;;;;;;1.50;1.20;;;;;;;35.29;47.58;98361.52;109407;1253;73443;-67
2023/07/30 10:22:18;;;;;;;3.80;1.40;;;;;;;35.26;48.10;98365.07;109377;1253;67596;-67
2023/07/30 10:25:07;;;;;;;1.10;1.00;;;;;;;34.82;48.02;98374.37;109389;1252;72746;-64
2023/07/30 10:27:43;;;;;;;0.90;0.90;;;;;;;33.92;48.76;98381.66;109488;1252;59057;-67
2023/07/30 10:30:14;;;;;;;1.10;1.00;;;;;;;33.22;50.74;98383.37;109316;1254;60118;-68
2023/07/30 10:33:02;;;;;;;2.00;0.90;;;;;;;32.85;52.54;98375.04;109346;1253;74714;-70
2023/07/30 10:35:40;;;;;;;3.00;1.30;;;;;;;32.68;55.40;98375.08;109327;1253;66797;-67
2023/07/30 10:38:24;;;;;;;1.20;1.00;;;;;;;32.63;57.08;98379.63;109374;1253;71375;-66
2023/07/30 10:41:16;;;;;;;2.20;0.90;;;;;;;32.61;58.00;98384.52;109445;1253;60220;-69
2023/07/30 10:43:48;;;;;;;1.10;1.00;;;;;;;32.52;57.21;98383.07;109388;1253;60025;-68
2023/07/30 10:46:19;;;;;;;1.10;1.00;;;;;;;32.32;57.07;98377.48;109412;1253;73383;-67
2023/07/30 10:48:47;;;;;;;1.20;1.00;;;;;;;32.06;56.98;98388.38;109454;1253;66878;-68
2023/07/30 10:51:16;;;;;;;3.70;0.90;;;;;;;31.74;58.84;98389.95;109514;1253;72129;-72
2023/07/30 10:53:44;;;;;;;1.60;1.00;;;;;;;31.46;60.92;98391.91;109411;1253;58897;-72
2023/07/30 10:56:12;;;;;;;2.20;0.80;;;;;;;31.16;63.09;98398.38;109531;1252;60023;-69
2023/07/30 10:58:40;;;;;;;1.20;1.00;;;;;;;30.91;65.33;98399.44;109359;1254;73505;-69
2023/07/30 11:01:08;;;;;;;1.20;1.10;;;;;;;30.72;68.80;98401.75;109413;1253;66588;-72
2023/07/30 11:03:35;;;;;;;1.10;1.10;;;;;;;30.52;70.01;98401.47;109424;1253;72702;-68
2023/07/30 11:06:03;;;;;;;1.50;1.10;;;;;;;30.31;70.36;98398.64;109445;1252;60045;-67
2023/07/30 11:08:40;;;;;;;1.50;1.10;;;;;;;30.20;73.55;98394.59;109388;1254;59522;-60
2023/07/30 11:11:09;;;;;;;1.50;1.30;;;;;;;30.20;75.18;98392.70;109444;1252;74021;-61
2023/07/30 11:13:37;;;;;;;2.90;1.30;;;;;;;30.22;76.90;98390.45;109417;1253;67701;-59
2023/07/30 11:16:06;;;;;;;0.90;0.90;;;;;;;30.17;76.00;98388.58;109438;1253;72899;-60
2023/07/30 11:18:34;;;;;;;1.70;1.00;;;;;;;30.14;75.89;98388.06;109375;1254;58952;-59
2023/07/30 11:21:22;;;;;;;1.10;1.10;;;;;;;30.13;76.90;98386.20;109484;1252;58933;-58
2023/07/30 11:23:50;;;;;;;1.50;1.00;;;;;;;30.10;75.48;98389.35;109427;1252;73425;-59
2023/07/30 11:26:19;;;;;;;1.20;1.10;;;;;;;30.02;74.07;98385.16;109510;1252;66287;-63